sensor_id;sensor_type;location;lat;lon;timestamp;P1;durP1;ratioP1;P2;durP2;ratioP2
33730;SDS011;22931;48.636;9.000;2023-08-06T00:02:59;0.75;;;0.70;;
33730;SDS011;22931;48.636;9.000;2023-08-06T00:08:09;0.98;;;0.90;;
33730;SDS011;22931;48.636;9.000;2023-08-06T00:13:17;1.00;;;0.87;;
33730;SDS011;22931;48.636;9.000;2023-08-06T00:18:24;0.75;;;0.75;;
33730;SDS011;22931;48.636;9.000;2023-08-06T00:23:34;1.10;;;1.00;;
33730;SDS011;22931;48.636;9.000;2023-08-06T00:28:42;1.57;;;1.27;;
33730;SDS011;22931;48.636;9.000;2023-08-06T00:33:50;1.17;;;1.10;;
33730;SDS011;22931;48.636;9.000;2023-08-06T00:39:00;0.90;;;0.90;;
33730;SDS011;22931;48.636;9.000;2023-08-06T00:44:07;1.23;;;1.13;;
33730;SDS011;22931;48.636;9.000;2023-08-06T00:49:15;1.20;;;1.10;;
33730;SDS011;22931;48.636;9.000;2023-08-06T00:54:25;1.30;;;1.20;;
33730;SDS011;22931;48.636;9.000;2023-08-06T00:59:34;1.33;;;1.10;;
33730;SDS011;22931;48.636;9.000;2023-08-06T01:04:42;3.85;;;1.25;;
33730;SDS011;22931;48.636;9.000;2023-08-06T01:09:54;1.48;;;1.38;;
33730;SDS011;22931;48.636;9.000;2023-08-06T01:15:10;1.48;;;1.20;;
33730;SDS011;22931;48.636;9.000;2023-08-06T01:20:22;1.20;;;1.10;;
33730;SDS011;22931;48.636;9.000;2023-08-06T01:25:39;0.75;;;0.75;;
33730;SDS011;22931;48.636;9.000;2023-08-06T01:30:53;1.35;;;1.25;;
33730;SDS011;22931;48.636;9.000;2023-08-06T01:36:09;0.85;;;0.82;;
33730;SDS011;22931;48.636;9.000;2023-08-06T01:41:18;1.20;;;1.10;;
33730;SDS011;22931;48.636;9.000;2023-08-06T01:46:26;1.33;;;0.95;;
33730;SDS011;22931;48.636;9.000;2023-08-06T01:51:36;0.90;;;0.90;;
33730;SDS011;22931;48.636;9.000;2023-08-06T01:56:43;1.58;;;1.48;;
33730;SDS011;22931;48.636;9.000;2023-08-06T02:01:51;1.55;;;1.30;;
33730;SDS011;22931;48.636;9.000;2023-08-06T02:07:02;1.13;;;1.02;;
33730;SDS011;22931;48.636;9.000;2023-08-06T02:12:09;1.40;;;1.27;;
33730;SDS011;22931;48.636;9.000;2023-08-06T02:17:17;1.13;;;1.00;;
33730;SDS011;22931;48.636;9.000;2023-08-06T02:22:27;1.20;;;1.10;;
33730;SDS011;22931;48.636;9.000;2023-08-06T02:27:34;4.72;;;1.10;;
33730;SDS011;22931;48.636;9.000;2023-08-06T02:32:44;1.30;;;1.20;;
33730;SDS011;22931;48.636;9.000;2023-08-06T02:37:54;0.88;;;0.82;;
33730;SDS011;22931;48.636;9.000;2023-08-06T02:43:01;1.38;;;1.27;;
33730;SDS011;22931;48.636;9.000;2023-08-06T02:48:09;0.82;;;0.82;;
33730;SDS011;22931;48.636;9.000;2023-08-06T02:53:19;2.00;;;1.20;;
33730;SDS011;22931;48.636;9.000;2023-08-06T02:58:27;0.82;;;0.82;;
33730;SDS011;22931;48.636;9.000;2023-08-06T03:03:35;1.08;;;1.02;;
33730;SDS011;22931;48.636;9.000;2023-08-06T03:08:45;1.25;;;1.08;;
33730;SDS011;22931;48.636;9.000;2023-08-06T03:13:52;0.95;;;0.90;;
33730;SDS011;22931;48.636;9.000;2023-08-06T03:19:03;0.95;;;0.95;;
33730;SDS011;22931;48.636;9.000;2023-08-06T03:24:14;1.42;;;1.10;;
33730;SDS011;22931;48.636;9.000;2023-08-06T03:29:21;1.30;;;0.88;;
33730;SDS011;22931;48.636;9.000;2023-08-06T03:34:29;0.85;;;0.73;;
33730;SDS011;22931;48.636;9.000;2023-08-06T03:39:40;1.05;;;0.95;;
33730;SDS011;22931;48.636;9.000;2023-08-06T03:44:47;1.60;;;1.00;;
33730;SDS011;22931;48.636;9.000;2023-08-06T03:49:55;0.70;;;0.70;;
33730;SDS011;22931;48.636;9.000;2023-08-06T03:55:05;1.08;;;0.98;;
33730;SDS011;22931;48.636;9.000;2023-08-06T04:00:13;1.65;;;0.98;;
33730;SDS011;22931;48.636;9.000;2023-08-06T04:05:21;1.05;;;0.90;;
33730;SDS011;22931;48.636;9.000;2023-08-06T04:10:31;0.80;;;0.80;;
33730;SDS011;22931;48.636;9.000;2023-08-06T04:15:39;0.70;;;0.70;;
33730;SDS011;22931;48.636;9.000;2023-08-06T04:20:47;1.27;;;0.73;;
33730;SDS011;22931;48.636;9.000;2023-08-06T04:25:58;1.15;;;0.80;;
33730;SDS011;22931;48.636;9.000;2023-08-06T04:31:07;0.82;;;0.70;;
33730;SDS011;22931;48.636;9.000;2023-08-06T04:36:16;1.67;;;0.73;;
33730;SDS011;22931;48.636;9.000;2023-08-06T04:41:27;0.98;;;0.70;;
33730;SDS011;22931;48.636;9.000;2023-08-06T04:46:34;1.07;;;0.80;;
33730;SDS011;22931;48.636;9.000;2023-08-06T04:51:42;2.13;;;0.75;;
33730;SDS011;22931;48.636;9.000;2023-08-06T04:56:52;0.82;;;0.77;;
33730;SDS011;22931;48.636;9.000;2023-08-06T05:02:00;2.47;;;0.80;;
33730;SDS011;22931;48.636;9.000;2023-08-06T05:07:10;1.20;;;0.50;;
33730;SDS011;22931;48.636;9.000;2023-08-06T05:12:21;1.20;;;0.88;;
33730;SDS011;22931;48.636;9.000;2023-08-06T05:17:29;1.03;;;0.70;;
33730;SDS011;22931;48.636;9.000;2023-08-06T05:22:37;0.60;;;0.60;;
33730;SDS011;22931;48.636;9.000;2023-08-06T05:27:47;0.93;;;0.90;;
33730;SDS011;22931;48.636;9.000;2023-08-06T05:32:54;0.82;;;0.80;;
33730;SDS011;22931;48.636;9.000;2023-08-06T05:38:02;0.35;;;0.35;;
33730;SDS011;22931;48.636;9.000;2023-08-06T05:43:12;0.50;;;0.50;;
33730;SDS011;22931;48.636;9.000;2023-08-06T05:48:20;0.50;;;0.50;;
33730;SDS011;22931;48.636;9.000;2023-08-06T05:53:29;0.50;;;0.50;;
33730;SDS011;22931;48.636;9.000;2023-08-06T05:58:39;0.50;;;0.50;;
33730;SDS011;22931;48.636;9.000;2023-08-06T06:03:47;0.50;;;0.45;;
33730;SDS011;22931;48.636;9.000;2023-08-06T06:08:55;0.88;;;0.45;;
33730;SDS011;22931;48.636;9.000;2023-08-06T06:14:06;0.50;;;0.50;;
33730;SDS011;22931;48.636;9.000;2023-08-06T06:19:15;0.80;;;0.50;;
33730;SDS011;22931;48.636;9.000;2023-08-06T06:24:23;7.55;;;0.60;;
33730;SDS011;22931;48.636;9.000;2023-08-06T06:29:33;1.17;;;0.70;;
33730;SDS011;22931;48.636;9.000;2023-08-06T06:34:41;2.00;;;0.52;;
33730;SDS011;22931;48.636;9.000;2023-08-06T06:39:48;0.80;;;0.60;;
33730;SDS011;22931;48.636;9.000;2023-08-06T06:44:58;0.80;;;0.55;;
33730;SDS011;22931;48.636;9.000;2023-08-06T06:50:06;0.60;;;0.60;;
33730;SDS011;22931;48.636;9.000;2023-08-06T06:55:15;0.70;;;0.57;;
33730;SDS011;22931;48.636;9.000;2023-08-06T07:00:25;0.98;;;0.60;;
33730;SDS011;22931;48.636;9.000;2023-08-06T07:05:33;0.50;;;0.50;;
33730;SDS011;22931;48.636;9.000;2023-08-06T07:10:41;0.80;;;0.40;;
33730;SDS011;22931;48.636;9.000;2023-08-06T07:15:51;0.68;;;0.63;;
33730;SDS011;22931;48.636;9.000;2023-08-06T07:20:59;0.57;;;0.57;;
33730;SDS011;22931;48.636;9.000;2023-08-06T07:26:06;2.60;;;0.77;;
33730;SDS011;22931;48.636;9.000;2023-08-06T07:31:17;0.40;;;0.40;;
33730;SDS011;22931;48.636;9.000;2023-08-06T07:36:31;0.40;;;0.40;;
33730;SDS011;22931;48.636;9.000;2023-08-06T07:41:39;0.70;;;0.50;;
33730;SDS011;22931;48.636;9.000;2023-08-06T07:47:03;0.40;;;0.40;;
33730;SDS011;22931;48.636;9.000;2023-08-06T07:52:11;0.35;;;0.35;;
33730;SDS011;22931;48.636;9.000;2023-08-06T07:57:19;0.30;;;0.30;;
33730;SDS011;22931;48.636;9.000;2023-08-06T08:02:29;0.65;;;0.40;;
33730;SDS011;22931;48.636;9.000;2023-08-06T08:07:37;0.43;;;0.43;;
33730;SDS011;22931;48.636;9.000;2023-08-06T08:12:45;0.30;;;0.30;;
33730;SDS011;22931;48.636;9.000;2023-08-06T08:17:59;4.18;;;0.50;;
33730;SDS011;22931;48.636;9.000;2023-08-06T08:23:07;0.40;;;0.40;;
33730;SDS011;22931;48.636;9.000;2023-08-06T08:28:15;0.40;;;0.40;;
33730;SDS011;22931;48.636;9.000;2023-08-06T08:33:25;0.40;;;0.40;;
33730;SDS011;22931;48.636;9.000;2023-08-06T08:38:32;0.30;;;0.30;;
33730;SDS011;22931;48.636;9.000;2023-08-06T08:43:40;0.30;;;0.30;;
33730;SDS011;22931;48.636;9.000;2023-08-06T08:48:51;0.20;;;0.20;;
33730;SDS011;22931;48.636;9.000;2023-08-06T08:59:09;1.35;;;0.40;;
33730;SDS011;22931;48.636;9.000;2023-08-06T09:04:20;0.30;;;0.30;;
33730;SDS011;22931;48.636;9.000;2023-08-06T09:09:30;0.30;;;0.30;;
33730;SDS011;22931;48.636;9.000;2023-08-06T09:14:39;0.30;;;0.30;;
33730;SDS011;22931;48.636;9.000;2023-08-06T09:19:49;0.30;;;0.30;;
33730;SDS011;22931;48.636;9.000;2023-08-06T09:24:56;0.50;;;0.40;;
33730;SDS011;22931;48.636;9.000;2023-08-06T09:30:05;0.20;;;0.20;;
33730;SDS011;22931;48.636;9.000;2023-08-06T09:35:19;0.30;;;0.30;;
33730;SDS011;22931;48.636;9.000;2023-08-06T09:40:27;0.38;;;0.38;;
33730;SDS011;22931;48.636;9.000;2023-08-06T09:45:37;0.30;;;0.30;;
33730;SDS011;22931;48.636;9.000;2023-08-06T09:50:57;0.30;;;0.30;;
33730;SDS011;22931;48.636;9.000;2023-08-06T09:56:11;0.30;;;0.30;;
33730;SDS011;22931;48.636;9.000;2023-08-06T10:01:23;0.60;;;0.30;;
33730;SDS011;22931;48.636;9.000;2023-08-06T10:06:35;0.30;;;0.30;;
33730;SDS011;22931;48.636;9.000;2023-08-06T10:11:43;0.30;;;0.30;;
33730;SDS011;22931;48.636;9.000;2023-08-06T10:16:52;0.35;;;0.35;;
33730;SDS011;22931;48.636;9.000;2023-08-06T10:22:10;0.65;;;0.30;;
33730;SDS011;22931;48.636;9.000;2023-08-06T10:27:22;0.38;;;0.38;;
33730;SDS011;22931;48.636;9.000;2023-08-06T10:32:46;0.30;;;0.30;;
33730;SDS011;22931;48.636;9.000;2023-08-06T10:38:00;0.30;;;0.30;;
33730;SDS011;22931;48.636;9.000;2023-08-06T10:43:24;0.32;;;0.32;;
33730;SDS011;22931;48.636;9.000;2023-08-06T10:48:34;0.93;;;0.50;;
33730;SDS011;22931;48.636;9.000;2023-08-06T10:53:46;1.20;;;0.40;;
33730;SDS011;22931;48.636;9.000;2023-08-06T10:58:55;0.38;;;0.38;;
33730;SDS011;22931;48.636;9.000;2023-08-06T11:04:04;0.40;;;0.40;;
33730;SDS011;22931;48.636;9.000;2023-08-06T11:09:14;0.50;;;0.50;;
33730;SDS011;22931;48.636;9.000;2023-08-06T11:14:22;0.40;;;0.40;;
33730;SDS011;22931;48.636;9.000;2023-08-06T11:19:30;0.20;;;0.20;;
33730;SDS011;22931;48.636;9.000;2023-08-06T11:24:40;0.55;;;0.30;;
33730;SDS011;22931;48.636;9.000;2023-08-06T11:29:48;0.40;;;0.40;;
33730;SDS011;22931;48.636;9.000;2023-08-06T11:34:56;0.40;;;0.40;;
33730;SDS011;22931;48.636;9.000;2023-08-06T11:40:06;0.35;;;0.35;;
33730;SDS011;22931;48.636;9.000;2023-08-06T11:45:16;0.70;;;0.40;;
33730;SDS011;22931;48.636;9.000;2023-08-06T11:50:29;0.40;;;0.40;;
33730;SDS011;22931;48.636;9.000;2023-08-06T11:55:40;0.68;;;0.68;;
33730;SDS011;22931;48.636;9.000;2023-08-06T12:00:48;0.40;;;0.40;;
33730;SDS011;22931;48.636;9.000;2023-08-06T12:05:56;0.30;;;0.30;;
33730;SDS011;22931;48.636;9.000;2023-08-06T12:11:06;0.57;;;0.57;;
33730;SDS011;22931;48.636;9.000;2023-08-06T12:16:14;0.40;;;0.40;;
33730;SDS011;22931;48.636;9.000;2023-08-06T12:21:23;0.70;;;0.60;;
33730;SDS011;22931;48.636;9.000;2023-08-06T12:26:33;0.57;;;0.57;;
33730;SDS011;22931;48.636;9.000;2023-08-06T12:31:43;0.60;;;0.60;;
33730;SDS011;22931;48.636;9.000;2023-08-06T12:36:52;0.60;;;0.60;;
33730;SDS011;22931;48.636;9.000;2023-08-06T12:42:03;0.73;;;0.57;;
33730;SDS011;22931;48.636;9.000;2023-08-06T12:47:13;1.70;;;0.65;;
33730;SDS011;22931;48.636;9.000;2023-08-06T12:52:22;0.60;;;0.60;;
33730;SDS011;22931;48.636;9.000;2023-08-06T12:57:32;0.70;;;0.70;;
33730;SDS011;22931;48.636;9.000;2023-08-06T13:03:00;0.73;;;0.65;;
33730;SDS011;22931;48.636;9.000;2023-08-06T13:08:09;0.40;;;0.40;;
33730;SDS011;22931;48.636;9.000;2023-08-06T13:13:19;0.57;;;0.50;;
33730;SDS011;22931;48.636;9.000;2023-08-06T13:18:27;1.50;;;0.70;;
33730;SDS011;22931;48.636;9.000;2023-08-06T13:23:35;0.60;;;0.60;;
33730;SDS011;22931;48.636;9.000;2023-08-06T13:28:45;1.23;;;0.45;;
33730;SDS011;22931;48.636;9.000;2023-08-06T13:33:53;0.43;;;0.43;;
33730;SDS011;22931;48.636;9.000;2023-08-06T13:39:02;0.40;;;0.40;;
33730;SDS011;22931;48.636;9.000;2023-08-06T13:44:13;0.52;;;0.50;;
33730;SDS011;22931;48.636;9.000;2023-08-06T13:49:20;0.50;;;0.50;;
33730;SDS011;22931;48.636;9.000;2023-08-06T13:54:28;0.50;;;0.50;;
33730;SDS011;22931;48.636;9.000;2023-08-06T13:59:38;0.80;;;0.40;;
33730;SDS011;22931;48.636;9.000;2023-08-06T14:04:48;0.40;;;0.40;;
33730;SDS011;22931;48.636;9.000;2023-08-06T14:09:55;0.55;;;0.55;;
33730;SDS011;22931;48.636;9.000;2023-08-06T14:15:07;0.50;;;0.50;;
33730;SDS011;22931;48.636;9.000;2023-08-06T14:20:15;0.60;;;0.60;;
33730;SDS011;22931;48.636;9.000;2023-08-06T14:25:23;0.50;;;0.50;;
33730;SDS011;22931;48.636;9.000;2023-08-06T14:30:34;0.40;;;0.40;;
33730;SDS011;22931;48.636;9.000;2023-08-06T14:35:42;0.50;;;0.50;;
33730;SDS011;22931;48.636;9.000;2023-08-06T14:40:49;0.40;;;0.40;;
33730;SDS011;22931;48.636;9.000;2023-08-06T14:46:00;0.50;;;0.50;;
33730;SDS011;22931;48.636;9.000;2023-08-06T14:51:07;0.50;;;0.50;;
33730;SDS011;22931;48.636;9.000;2023-08-06T14:56:15;0.35;;;0.35;;
33730;SDS011;22931;48.636;9.000;2023-08-06T15:01:26;0.40;;;0.40;;
33730;SDS011;22931;48.636;9.000;2023-08-06T15:06:33;1.70;;;0.50;;
33730;SDS011;22931;48.636;9.000;2023-08-06T15:11:41;0.40;;;0.40;;
33730;SDS011;22931;48.636;9.000;2023-08-06T15:16:51;0.40;;;0.40;;
33730;SDS011;22931;48.636;9.000;2023-08-06T15:22:01;0.68;;;0.60;;
33730;SDS011;22931;48.636;9.000;2023-08-06T15:27:10;0.50;;;0.50;;
33730;SDS011;22931;48.636;9.000;2023-08-06T15:32:21;0.40;;;0.40;;
33730;SDS011;22931;48.636;9.000;2023-08-06T15:37:29;0.35;;;0.35;;
33730;SDS011;22931;48.636;9.000;2023-08-06T15:42:37;0.60;;;0.60;;
33730;SDS011;22931;48.636;9.000;2023-08-06T15:47:47;0.55;;;0.55;;
33730;SDS011;22931;48.636;9.000;2023-08-06T15:52:55;0.73;;;0.70;;
33730;SDS011;22931;48.636;9.000;2023-08-06T15:58:03;0.50;;;0.50;;
33730;SDS011;22931;48.636;9.000;2023-08-06T16:03:13;0.57;;;0.57;;
33730;SDS011;22931;48.636;9.000;2023-08-06T16:08:21;1.47;;;0.50;;
33730;SDS011;22931;48.636;9.000;2023-08-06T16:18:42;0.57;;;0.50;;
33730;SDS011;22931;48.636;9.000;2023-08-06T16:23:49;1.80;;;0.63;;
33730;SDS011;22931;48.636;9.000;2023-08-06T16:28:57;0.60;;;0.55;;
33730;SDS011;22931;48.636;9.000;2023-08-06T16:34:08;0.63;;;0.60;;
33730;SDS011;22931;48.636;9.000;2023-08-06T16:39:15;0.60;;;0.60;;
33730;SDS011;22931;48.636;9.000;2023-08-06T16:44:25;0.65;;;0.65;;
33730;SDS011;22931;48.636;9.000;2023-08-06T16:49:39;0.75;;;0.75;;
33730;SDS011;22931;48.636;9.000;2023-08-06T16:54:47;2.47;;;0.70;;
33730;SDS011;22931;48.636;9.000;2023-08-06T16:59:55;1.13;;;0.90;;
33730;SDS011;22931;48.636;9.000;2023-08-06T17:05:07;1.10;;;0.85;;
33730;SDS011;22931;48.636;9.000;2023-08-06T17:10:15;2.40;;;0.88;;
33730;SDS011;22931;48.636;9.000;2023-08-06T17:15:27;1.57;;;1.00;;
33730;SDS011;22931;48.636;9.000;2023-08-06T17:20:37;1.45;;;1.20;;
33730;SDS011;22931;48.636;9.000;2023-08-06T17:25:48;2.00;;;1.33;;
33730;SDS011;22931;48.636;9.000;2023-08-06T17:30:55;0.90;;;0.80;;
33730;SDS011;22931;48.636;9.000;2023-08-06T17:36:06;1.70;;;1.05;;
33730;SDS011;22931;48.636;9.000;2023-08-06T17:41:14;0.82;;;0.82;;
33730;SDS011;22931;48.636;9.000;2023-08-06T17:46:21;0.70;;;0.70;;
33730;SDS011;22931;48.636;9.000;2023-08-06T17:51:32;1.00;;;0.90;;
33730;SDS011;22931;48.636;9.000;2023-08-06T17:56:39;0.83;;;0.80;;
33730;SDS011;22931;48.636;9.000;2023-08-06T18:01:48;1.17;;;0.77;;
33730;SDS011;22931;48.636;9.000;2023-08-06T18:06:59;1.00;;;0.90;;
33730;SDS011;22931;48.636;9.000;2023-08-06T18:12:07;1.67;;;1.17;;
33730;SDS011;22931;48.636;9.000;2023-08-06T18:17:15;0.70;;;0.70;;
33730;SDS011;22931;48.636;9.000;2023-08-06T18:22:25;2.05;;;0.88;;
33730;SDS011;22931;48.636;9.000;2023-08-06T18:27:33;1.00;;;0.90;;
33730;SDS011;22931;48.636;9.000;2023-08-06T18:32:41;0.88;;;0.88;;
33730;SDS011;22931;48.636;9.000;2023-08-06T18:37:51;1.10;;;0.75;;
